sensor_id;sensor_type;location;lat;lon;timestamp;P1;durP1;ratioP1;P2;durP2;ratioP2
49440;SDS011;35317;51.978;6.296;2022-12-11T00:00:35;90.97;;;23.23;;
49440;SDS011;35317;51.978;6.296;2022-12-11T00:05:40;95.72;;;22.88;;
49440;SDS011;35317;51.978;6.296;2022-12-11T00:10:47;95.43;;;23.58;;
49440;SDS011;35317;51.978;6.296;2022-12-11T00:15:49;108.55;;;26.08;;
49440;SDS011;35317;51.978;6.296;2022-12-11T00:20:50;110.82;;;24.83;;
49440;SDS011;35317;51.978;6.296;2022-12-11T00:25:50;111.90;;;25.63;;
49440;SDS011;35317;51.978;6.296;2022-12-11T00:30:51;110.82;;;25.20;;
49440;SDS011;35317;51.978;6.296;2022-12-11T00:35:52;119.38;;;25.13;;
49440;SDS011;35317;51.978;6.296;2022-12-11T00:40:56;121.55;;;26.00;;
49440;SDS011;35317;51.978;6.296;2022-12-11T00:46:00;125.18;;;25.58;;
49440;SDS011;35317;51.978;6.296;2022-12-11T00:51:03;139.18;;;28.58;;
49440;SDS011;35317;51.978;6.296;2022-12-11T00:56:13;133.98;;;28.08;;
49440;SDS011;35317;51.978;6.296;2022-12-11T01:01:18;151.32;;;29.52;;
49440;SDS011;35317;51.978;6.296;2022-12-11T01:06:23;164.68;;;31.23;;
49440;SDS011;35317;51.978;6.296;2022-12-11T01:11:25;175.00;;;31.98;;
49440;SDS011;35317;51.978;6.296;2022-12-11T01:16:26;187.15;;;32.08;;
49440;SDS011;35317;51.978;6.296;2022-12-11T01:21:27;198.13;;;32.78;;
49440;SDS011;35317;51.978;6.296;2022-12-11T01:26:28;188.30;;;33.08;;
49440;SDS011;35317;51.978;6.296;2022-12-11T01:31:29;166.30;;;31.00;;
49440;SDS011;35317;51.978;6.296;2022-12-11T01:36:30;191.00;;;32.92;;
49440;SDS011;35317;51.978;6.296;2022-12-11T01:41:31;175.18;;;34.15;;
49440;SDS011;35317;51.978;6.296;2022-12-11T01:46:33;179.35;;;30.92;;
49440;SDS011;35317;51.978;6.296;2022-12-11T01:51:37;171.45;;;32.65;;
49440;SDS011;35317;51.978;6.296;2022-12-11T01:57:05;177.35;;;32.28;;
49440;SDS011;35317;51.978;6.296;2022-12-11T02:02:14;173.10;;;32.58;;
49440;SDS011;35317;51.978;6.296;2022-12-11T02:07:20;151.65;;;31.60;;
49440;SDS011;35317;51.978;6.296;2022-12-11T02:23:20;161.00;;;31.98;;
49440;SDS011;35317;51.978;6.296;2022-12-11T02:28:53;150.32;;;30.70;;
49440;SDS011;35317;51.978;6.296;2022-12-11T02:34:07;153.80;;;29.95;;
49440;SDS011;35317;51.978;6.296;2022-12-11T02:39:42;154.80;;;31.08;;
49440;SDS011;35317;51.978;6.296;2022-12-11T02:44:46;171.18;;;31.27;;
49440;SDS011;35317;51.978;6.296;2022-12-11T02:49:49;171.15;;;30.63;;
49440;SDS011;35317;51.978;6.296;2022-12-11T02:54:52;163.70;;;32.13;;
49440;SDS011;35317;51.978;6.296;2022-12-11T02:59:57;176.80;;;30.55;;
49440;SDS011;35317;51.978;6.296;2022-12-11T03:04:58;163.70;;;31.60;;
49440;SDS011;35317;51.978;6.296;2022-12-11T03:09:59;176.30;;;30.42;;
49440;SDS011;35317;51.978;6.296;2022-12-11T03:15:01;177.00;;;31.90;;
49440;SDS011;35317;51.978;6.296;2022-12-11T03:25:22;199.60;;;32.08;;
49440;SDS011;35317;51.978;6.296;2022-12-11T03:30:31;186.95;;;31.45;;
49440;SDS011;35317;51.978;6.296;2022-12-11T03:35:42;199.48;;;31.23;;
49440;SDS011;35317;51.978;6.296;2022-12-11T03:40:49;215.88;;;33.47;;
49440;SDS011;35317;51.978;6.296;2022-12-11T03:45:54;191.18;;;29.63;;
49440;SDS011;35317;51.978;6.296;2022-12-11T03:50:56;211.43;;;33.10;;
49440;SDS011;35317;51.978;6.296;2022-12-11T03:55:59;183.65;;;32.40;;
49440;SDS011;35317;51.978;6.296;2022-12-11T04:01:07;180.73;;;30.88;;
49440;SDS011;35317;51.978;6.296;2022-12-11T04:06:09;190.35;;;30.15;;
49440;SDS011;35317;51.978;6.296;2022-12-11T04:11:10;227.27;;;32.72;;
49440;SDS011;35317;51.978;6.296;2022-12-11T04:16:29;169.75;;;29.63;;
49440;SDS011;35317;51.978;6.296;2022-12-11T04:21:30;186.15;;;31.60;;
49440;SDS011;35317;51.978;6.296;2022-12-11T04:26:49;186.07;;;32.85;;
49440;SDS011;35317;51.978;6.296;2022-12-11T04:31:50;164.65;;;30.77;;
49440;SDS011;35317;51.978;6.296;2022-12-11T04:36:51;174.25;;;32.70;;
49440;SDS011;35317;51.978;6.296;2022-12-11T04:41:52;151.10;;;27.65;;
49440;SDS011;35317;51.978;6.296;2022-12-11T04:46:52;161.52;;;29.27;;
49440;SDS011;35317;51.978;6.296;2022-12-11T04:51:53;149.20;;;29.95;;
49440;SDS011;35317;51.978;6.296;2022-12-11T04:56:54;138.35;;;27.92;;
49440;SDS011;35317;51.978;6.296;2022-12-11T05:01:54;157.38;;;30.67;;
49440;SDS011;35317;51.978;6.296;2022-12-11T05:06:55;148.52;;;30.60;;
49440;SDS011;35317;51.978;6.296;2022-12-11T05:11:56;154.43;;;30.10;;
49440;SDS011;35317;51.978;6.296;2022-12-11T05:16:57;143.77;;;29.30;;
49440;SDS011;35317;51.978;6.296;2022-12-11T05:21:59;161.77;;;30.02;;
49440;SDS011;35317;51.978;6.296;2022-12-11T05:26:59;165.13;;;30.70;;
49440;SDS011;35317;51.978;6.296;2022-12-11T05:32:00;173.80;;;31.17;;
49440;SDS011;35317;51.978;6.296;2022-12-11T05:37:01;174.10;;;32.72;;
49440;SDS011;35317;51.978;6.296;2022-12-11T05:42:02;150.15;;;31.27;;
49440;SDS011;35317;51.978;6.296;2022-12-11T05:47:03;169.65;;;32.33;;
49440;SDS011;35317;51.978;6.296;2022-12-11T05:52:04;171.93;;;32.88;;
49440;SDS011;35317;51.978;6.296;2022-12-11T05:57:05;161.98;;;32.22;;
49440;SDS011;35317;51.978;6.296;2022-12-11T06:02:05;158.50;;;33.42;;
49440;SDS011;35317;51.978;6.296;2022-12-11T06:07:06;171.63;;;32.63;;
49440;SDS011;35317;51.978;6.296;2022-12-11T06:12:07;162.57;;;32.65;;
49440;SDS011;35317;51.978;6.296;2022-12-11T06:17:08;175.65;;;34.25;;
49440;SDS011;35317;51.978;6.296;2022-12-11T06:22:09;183.93;;;35.20;;
49440;SDS011;35317;51.978;6.296;2022-12-11T06:27:09;173.32;;;34.25;;
49440;SDS011;35317;51.978;6.296;2022-12-11T06:32:10;168.82;;;34.72;;
49440;SDS011;35317;51.978;6.296;2022-12-11T06:37:11;183.85;;;35.17;;
49440;SDS011;35317;51.978;6.296;2022-12-11T06:42:12;156.70;;;35.42;;
49440;SDS011;35317;51.978;6.296;2022-12-11T06:47:13;189.43;;;36.78;;
49440;SDS011;35317;51.978;6.296;2022-12-11T06:52:13;184.05;;;37.35;;
49440;SDS011;35317;51.978;6.296;2022-12-11T06:57:14;167.18;;;37.00;;
49440;SDS011;35317;51.978;6.296;2022-12-11T07:02:17;178.02;;;37.08;;
49440;SDS011;35317;51.978;6.296;2022-12-11T07:07:19;189.10;;;37.33;;
49440;SDS011;35317;51.978;6.296;2022-12-11T07:12:20;193.90;;;38.05;;
49440;SDS011;35317;51.978;6.296;2022-12-11T07:17:20;162.77;;;34.58;;
49440;SDS011;35317;51.978;6.296;2022-12-11T07:22:21;168.00;;;35.85;;
49440;SDS011;35317;51.978;6.296;2022-12-11T07:27:22;168.63;;;37.97;;
49440;SDS011;35317;51.978;6.296;2022-12-11T07:32:23;151.90;;;35.20;;
49440;SDS011;35317;51.978;6.296;2022-12-11T07:37:24;150.15;;;36.20;;
49440;SDS011;35317;51.978;6.296;2022-12-11T07:42:25;154.35;;;36.20;;
49440;SDS011;35317;51.978;6.296;2022-12-11T07:47:25;148.90;;;34.20;;
49440;SDS011;35317;51.978;6.296;2022-12-11T07:52:26;135.40;;;33.95;;
49440;SDS011;35317;51.978;6.296;2022-12-11T07:57:27;133.57;;;34.03;;
49440;SDS011;35317;51.978;6.296;2022-12-11T08:02:28;143.13;;;34.22;;
49440;SDS011;35317;51.978;6.296;2022-12-11T08:07:29;126.78;;;33.45;;
49440;SDS011;35317;51.978;6.296;2022-12-11T08:12:29;91.80;;;26.92;;
49440;SDS011;35317;51.978;6.296;2022-12-11T08:17:30;88.88;;;26.67;;
49440;SDS011;35317;51.978;6.296;2022-12-11T08:22:31;81.18;;;25.45;;
49440;SDS011;35317;51.978;6.296;2022-12-11T08:27:33;73.20;;;23.52;;
49440;SDS011;35317;51.978;6.296;2022-12-11T08:32:34;58.63;;;23.60;;
49440;SDS011;35317;51.978;6.296;2022-12-11T08:37:34;60.60;;;21.63;;
49440;SDS011;35317;51.978;6.296;2022-12-11T08:42:35;58.50;;;22.15;;
49440;SDS011;35317;51.978;6.296;2022-12-11T08:47:36;57.90;;;21.20;;
49440;SDS011;35317;51.978;6.296;2022-12-11T08:52:37;51.63;;;20.15;;
49440;SDS011;35317;51.978;6.296;2022-12-11T08:57:38;55.33;;;20.95;;
49440;SDS011;35317;51.978;6.296;2022-12-11T09:02:38;48.65;;;19.80;;
49440;SDS011;35317;51.978;6.296;2022-12-11T09:07:39;47.10;;;20.10;;
49440;SDS011;35317;51.978;6.296;2022-12-11T09:12:40;44.83;;;18.42;;
49440;SDS011;35317;51.978;6.296;2022-12-11T09:17:41;50.45;;;21.00;;
49440;SDS011;35317;51.978;6.296;2022-12-11T09:22:42;49.88;;;21.30;;
49440;SDS011;35317;51.978;6.296;2022-12-11T09:27:43;50.67;;;21.33;;
49440;SDS011;35317;51.978;6.296;2022-12-11T09:32:43;49.78;;;20.13;;
49440;SDS011;35317;51.978;6.296;2022-12-11T09:37:44;54.22;;;22.05;;
49440;SDS011;35317;51.978;6.296;2022-12-11T09:48:22;52.85;;;20.17;;
49440;SDS011;35317;51.978;6.296;2022-12-11T09:53:25;48.23;;;19.83;;
49440;SDS011;35317;51.978;6.296;2022-12-11T10:04:04;44.50;;;19.50;;
49440;SDS011;35317;51.978;6.296;2022-12-11T10:14:58;38.00;;;17.83;;
49440;SDS011;35317;51.978;6.296;2022-12-11T10:36:34;38.05;;;17.83;;
49440;SDS011;35317;51.978;6.296;2022-12-11T10:41:39;37.38;;;18.95;;
49440;SDS011;35317;51.978;6.296;2022-12-11T10:46:44;37.85;;;18.65;;
49440;SDS011;35317;51.978;6.296;2022-12-11T10:51:46;39.40;;;19.10;;
49440;SDS011;35317;51.978;6.296;2022-12-11T10:56:47;39.03;;;18.20;;
49440;SDS011;35317;51.978;6.296;2022-12-11T11:01:49;33.90;;;16.63;;
49440;SDS011;35317;51.978;6.296;2022-12-11T11:07:00;33.33;;;18.02;;
49440;SDS011;35317;51.978;6.296;2022-12-11T11:12:19;36.40;;;18.58;;
49440;SDS011;35317;51.978;6.296;2022-12-11T11:17:25;38.80;;;20.25;;
49440;SDS011;35317;51.978;6.296;2022-12-11T11:22:25;39.42;;;20.25;;
49440;SDS011;35317;51.978;6.296;2022-12-11T11:27:34;39.55;;;21.48;;
49440;SDS011;35317;51.978;6.296;2022-12-11T11:32:43;42.05;;;21.73;;
49440;SDS011;35317;51.978;6.296;2022-12-11T11:37:45;45.17;;;23.17;;
49440;SDS011;35317;51.978;6.296;2022-12-11T11:43:16;44.30;;;21.88;;
49440;SDS011;35317;51.978;6.296;2022-12-11T11:53:48;46.42;;;20.63;;
49440;SDS011;35317;51.978;6.296;2022-12-11T12:04:18;37.45;;;18.80;;
49440;SDS011;35317;51.978;6.296;2022-12-11T12:14:48;38.10;;;18.30;;
49440;SDS011;35317;51.978;6.296;2022-12-11T12:25:40;40.35;;;18.73;;
49440;SDS011;35317;51.978;6.296;2022-12-11T12:30:54;41.97;;;18.90;;
49440;SDS011;35317;51.978;6.296;2022-12-11T12:36:16;39.83;;;19.23;;
49440;SDS011;35317;51.978;6.296;2022-12-11T12:41:46;40.47;;;20.10;;
49440;SDS011;35317;51.978;6.296;2022-12-11T12:47:14;39.35;;;19.50;;
49440;SDS011;35317;51.978;6.296;2022-12-11T12:52:18;47.57;;;20.87;;
49440;SDS011;35317;51.978;6.296;2022-12-11T12:57:36;41.25;;;20.55;;
49440;SDS011;35317;51.978;6.296;2022-12-11T13:02:46;39.10;;;19.42;;
49440;SDS011;35317;51.978;6.296;2022-12-11T13:07:51;34.92;;;18.75;;
49440;SDS011;35317;51.978;6.296;2022-12-11T13:12:59;35.95;;;18.77;;
49440;SDS011;35317;51.978;6.296;2022-12-11T13:18:02;39.70;;;19.30;;
49440;SDS011;35317;51.978;6.296;2022-12-11T13:23:33;42.75;;;19.77;;
49440;SDS011;35317;51.978;6.296;2022-12-11T13:33:38;41.70;;;20.27;;
49440;SDS011;35317;51.978;6.296;2022-12-11T13:38:46;40.90;;;17.63;;
49440;SDS011;35317;51.978;6.296;2022-12-11T13:43:57;37.22;;;19.13;;
49440;SDS011;35317;51.978;6.296;2022-12-11T13:49:00;41.05;;;18.55;;
49440;SDS011;35317;51.978;6.296;2022-12-11T13:59:28;39.45;;;17.17;;
49440;SDS011;35317;51.978;6.296;2022-12-11T14:04:37;37.55;;;19.27;;
49440;SDS011;35317;51.978;6.296;2022-12-11T14:09:41;40.85;;;17.92;;
49440;SDS011;35317;51.978;6.296;2022-12-11T14:14:49;39.92;;;19.08;;
49440;SDS011;35317;51.978;6.296;2022-12-11T14:19:55;34.95;;;16.92;;
49440;SDS011;35317;51.978;6.296;2022-12-11T14:25:00;40.10;;;18.77;;
49440;SDS011;35317;51.978;6.296;2022-12-11T14:30:18;37.55;;;18.15;;
49440;SDS011;35317;51.978;6.296;2022-12-11T14:40:37;37.00;;;17.75;;
49440;SDS011;35317;51.978;6.296;2022-12-11T14:45:46;36.70;;;17.60;;
49440;SDS011;35317;51.978;6.296;2022-12-11T14:50:50;39.35;;;18.13;;
49440;SDS011;35317;51.978;6.296;2022-12-11T14:55:53;38.50;;;18.33;;
49440;SDS011;35317;51.978;6.296;2022-12-11T15:00:58;33.83;;;17.25;;
49440;SDS011;35317;51.978;6.296;2022-12-11T15:06:23;38.80;;;18.05;;
49440;SDS011;35317;51.978;6.296;2022-12-11T15:11:31;32.92;;;16.95;;
49440;SDS011;35317;51.978;6.296;2022-12-11T15:16:32;38.28;;;20.35;;
49440;SDS011;35317;51.978;6.296;2022-12-11T15:21:37;43.65;;;19.98;;
49440;SDS011;35317;51.978;6.296;2022-12-11T15:26:43;36.53;;;17.80;;
49440;SDS011;35317;51.978;6.296;2022-12-11T15:31:46;44.88;;;20.30;;
49440;SDS011;35317;51.978;6.296;2022-12-11T15:37:00;39.50;;;18.93;;
49440;SDS011;35317;51.978;6.296;2022-12-11T15:42:01;38.15;;;18.25;;
49440;SDS011;35317;51.978;6.296;2022-12-11T15:47:10;42.85;;;19.63;;
49440;SDS011;35317;51.978;6.296;2022-12-11T15:52:14;42.40;;;19.52;;
49440;SDS011;35317;51.978;6.296;2022-12-11T15:57:16;39.30;;;18.30;;
49440;SDS011;35317;51.978;6.296;2022-12-11T16:02:23;36.38;;;18.83;;
49440;SDS011;35317;51.978;6.296;2022-12-11T16:07:26;42.00;;;20.05;;
49440;SDS011;35317;51.978;6.296;2022-12-11T16:12:27;40.03;;;19.33;;
49440;SDS011;35317;51.978;6.296;2022-12-11T16:17:28;35.72;;;18.33;;
49440;SDS011;35317;51.978;6.296;2022-12-11T16:22:30;40.55;;;19.67;;
49440;SDS011;35317;51.978;6.296;2022-12-11T16:27:31;40.63;;;19.80;;
49440;SDS011;35317;51.978;6.296;2022-12-11T16:32:31;35.92;;;18.60;;
49440;SDS011;35317;51.978;6.296;2022-12-11T16:37:33;40.38;;;19.10;;
49440;SDS011;35317;51.978;6.296;2022-12-11T16:42:34;41.60;;;20.00;;
49440;SDS011;35317;51.978;6.296;2022-12-11T16:47:35;37.58;;;19.00;;
49440;SDS011;35317;51.978;6.296;2022-12-11T16:52:36;45.42;;;19.95;;
49440;SDS011;35317;51.978;6.296;2022-12-11T16:57:37;42.00;;;20.83;;
49440;SDS011;35317;51.978;6.296;2022-12-11T17:02:38;39.45;;;19.65;;
49440;SDS011;35317;51.978;6.296;2022-12-11T17:07:39;39.58;;;19.33;;
49440;SDS011;35317;51.978;6.296;2022-12-11T17:12:40;35.50;;;18.65;;
49440;SDS011;35317;51.978;6.296;2022-12-11T17:17:40;39.95;;;20.02;;
49440;SDS011;35317;51.978;6.296;2022-12-11T17:22:42;43.88;;;22.80;;
49440;SDS011;35317;51.978;6.296;2022-12-11T17:27:44;43.80;;;20.20;;
49440;SDS011;35317;51.978;6.296;2022-12-11T17:32:46;42.90;;;20.52;;
49440;SDS011;35317;51.978;6.296;2022-12-11T17:37:47;42.65;;;21.30;;
49440;SDS011;35317;51.978;6.296;2022-12-11T17:42:48;45.97;;;20.90;;
49440;SDS011;35317;51.978;6.296;2022-12-11T17:47:50;43.35;;;20.77;;
49440;SDS011;35317;51.978;6.296;2022-12-11T17:52:50;44.58;;;19.75;;
49440;SDS011;35317;51.978;6.296;2022-12-11T17:57:52;44.75;;;20.88;;
49440;SDS011;35317;51.978;6.296;2022-12-11T18:02:52;42.78;;;21.02;;
49440;SDS011;35317;51.978;6.296;2022-12-11T18:07:53;44.92;;;21.60;;
49440;SDS011;35317;51.978;6.296;2022-12-11T18:12:54;41.45;;;18.88;;
49440;SDS011;35317;51.978;6.296;2022-12-11T18:17:56;38.13;;;19.73;;
49440;SDS011;35317;51.978;6.296;2022-12-11T18:22:57;41.85;;;19.63;;
49440;SDS011;35317;51.978;6.296;2022-12-11T18:27:59;39.45;;;19.38;;
49440;SDS011;35317;51.978;6.296;2022-12-11T18:33:00;40.70;;;19.27;;
49440;SDS011;35317;51.978;6.296;2022-12-11T18:38:01;40.78;;;19.50;;
49440;SDS011;35317;51.978;6.296;2022-12-11T18:43:02;39.25;;;19.05;;
49440;SDS011;35317;51.978;6.296;2022-12-11T18:48:03;36.38;;;17.67;;
49440;SDS011;35317;51.978;6.296;2022-12-11T18:53:05;38.80;;;18.83;;
49440;SDS011;35317;51.978;6.296;2022-12-11T18:58:06;38.00;;;18.17;;
49440;SDS011;35317;51.978;6.296;2022-12-11T19:03:07;36.58;;;18.40;;
49440;SDS011;35317;51.978;6.296;2022-12-11T19:08:10;37.03;;;18.10;;
49440;SDS011;35317;51.978;6.296;2022-12-11T19:13:13;36.45;;;19.13;;
49440;SDS011;35317;51.978;6.296;2022-12-11T19:18:14;33.92;;;17.65;;
49440;SDS011;35317;51.978;6.296;2022-12-11T19:23:15;37.83;;;17.58;;
49440;SDS011;35317;51.978;6.296;2022-12-11T19:28:16;35.67;;;17.75;;
49440;SDS011;35317;51.978;6.296;2022-12-11T19:33:18;37.67;;;19.25;;
49440;SDS011;35317;51.978;6.296;2022-12-11T19:38:19;32.67;;;16.98;;
49440;SDS011;35317;51.978;6.296;2022-12-11T19:43:20;36.03;;;17.20;;
49440;SDS011;35317;51.978;6.296;2022-12-11T19:48:21;39.45;;;18.38;;
49440;SDS011;35317;51.978;6.296;2022-12-11T19:53:22;36.50;;;18.20;;
49440;SDS011;35317;51.978;6.296;2022-12-11T19:58:23;35.10;;;18.10;;
49440;SDS011;35317;51.978;6.296;2022-12-11T20:03:24;33.72;;;17.00;;
49440;SDS011;35317;51.978;6.296;2022-12-11T20:08:26;33.75;;;16.35;;
49440;SDS011;35317;51.978;6.296;2022-12-11T20:13:27;34.35;;;16.67;;
49440;SDS011;35317;51.978;6.296;2022-12-11T20:18:29;33.72;;;16.80;;
49440;SDS011;35317;51.978;6.296;2022-12-11T20:23:30;36.67;;;18.30;;
49440;SDS011;35317;51.978;6.296;2022-12-11T20:28:32;34.97;;;17.83;;
49440;SDS011;35317;51.978;6.296;2022-12-11T20:33:32;34.67;;;17.58;;
49440;SDS011;35317;51.978;6.296;2022-12-11T20:38:33;35.50;;;17.60;;
49440;SDS011;35317;51.978;6.296;2022-12-11T20:43:36;38.65;;;18.63;;
49440;SDS011;35317;51.978;6.296;2022-12-11T20:48:38;34.78;;;18.77;;
49440;SDS011;35317;51.978;6.296;2022-12-11T20:53:41;40.75;;;20.45;;
49440;SDS011;35317;51.978;6.296;2022-12-11T20:58:43;36.20;;;19.30;;
49440;SDS011;35317;51.978;6.296;2022-12-11T21:03:44;42.33;;;19.92;;
49440;SDS011;35317;51.978;6.296;2022-12-11T21:08:46;37.47;;;18.83;;
49440;SDS011;35317;51.978;6.296;2022-12-11T21:13:47;39.78;;;20.02;;
49440;SDS011;35317;51.978;6.296;2022-12-11T21:18:48;38.60;;;19.15;;
49440;SDS011;35317;51.978;6.296;2022-12-11T21:23:49;38.60;;;19.13;;
49440;SDS011;35317;51.978;6.296;2022-12-11T21:28:50;35.45;;;18.42;;
49440;SDS011;35317;51.978;6.296;2022-12-11T21:33:52;37.95;;;19.83;;
49440;SDS011;35317;51.978;6.296;2022-12-11T21:38:53;39.10;;;19.60;;
49440;SDS011;35317;51.978;6.296;2022-12-11T21:43:55;41.15;;;20.77;;
49440;SDS011;35317;51.978;6.296;2022-12-11T21:48:56;38.67;;;18.88;;
49440;SDS011;35317;51.978;6.296;2022-12-11T21:53:57;36.25;;;19.23;;
49440;SDS011;35317;51.978;6.296;2022-12-11T21:58:57;35.90;;;18.15;;
49440;SDS011;35317;51.978;6.296;2022-12-11T22:04:00;35.58;;;18.15;;
49440;SDS011;35317;51.978;6.296;2022-12-11T22:09:04;41.38;;;19.55;;
49440;SDS011;35317;51.978;6.296;2022-12-11T22:14:05;37.67;;;18.85;;
49440;SDS011;35317;51.978;6.296;2022-12-11T22:19:06;43.33;;;20.77;;
49440;SDS011;35317;51.978;6.296;2022-12-11T22:24:07;36.58;;;19.33;;
49440;SDS011;35317;51.978;6.296;2022-12-11T22:29:08;36.13;;;18.02;;
49440;SDS011;35317;51.978;6.296;2022-12-11T22:34:09;45.90;;;22.92;;
49440;SDS011;35317;51.978;6.296;2022-12-11T22:39:10;42.80;;;21.63;;
49440;SDS011;35317;51.978;6.296;2022-12-11T22:44:12;37.72;;;19.00;;
49440;SDS011;35317;51.978;6.296;2022-12-11T22:49:15;39.47;;;19.48;;
49440;SDS011;35317;51.978;6.296;2022-12-11T22:54:17;39.80;;;19.92;;
49440;SDS011;35317;51.978;6.296;2022-12-11T22:59:17;42.78;;;20.55;;
49440;SDS011;35317;51.978;6.296;2022-12-11T23:04:18;39.70;;;20.00;;
49440;SDS011;35317;51.978;6.296;2022-12-11T23:09:19;39.58;;;19.35;;
49440;SDS011;35317;51.978;6.296;2022-12-11T23:14:20;40.65;;;20.23;;
49440;SDS011;35317;51.978;6.296;2022-12-11T23:19:21;40.58;;;20.23;;
49440;SDS011;35317;51.978;6.296;2022-12-11T23:24:22;40.53;;;20.50;;
49440;SDS011;35317;51.978;6.296;2022-12-11T23:29:22;42.42;;;21.23;;
49440;SDS011;35317;51.978;6.296;2022-12-11T23:34:23;43.22;;;20.17;;
49440;SDS011;35317;51.978;6.296;2022-12-11T23:39:24;39.75;;;20.42;;
49440;SDS011;35317;51.978;6.296;2022-12-11T23:44:25;43.70;;;21.27;;
49440;SDS011;35317;51.978;6.296;2022-12-11T23:49:26;42.42;;;21.20;;
49440;SDS011;35317;51.978;6.296;2022-12-11T23:54:26;48.95;;;25.55;;
49440;SDS011;35317;51.978;6.296;2022-12-11T23:59:27;66.00;;;35.80;;
